createdAt,value
2023-03-25T00:01:49.410Z,12.33
2023-03-25T00:06:51.050Z,12.12
2023-03-25T00:11:53.310Z,12.13
2023-03-25T00:16:54.905Z,12.21
2023-03-25T00:21:56.584Z,12.14
2023-03-25T00:26:58.192Z,12.44
2023-03-25T00:31:59.766Z,12.21
2023-03-25T00:37:04.949Z,12.46
2023-03-25T00:42:06.502Z,12.24
2023-03-25T00:47:08.120Z,12.15
2023-03-25T00:52:09.824Z,12.04
2023-03-25T00:57:12.044Z,11.98
2023-03-25T01:02:13.881Z,12.06
2023-03-25T01:07:17.263Z,12.03
2023-03-25T01:12:19.778Z,12.00
2023-03-25T01:17:21.630Z,12.13
2023-03-25T01:22:23.173Z,11.88
2023-03-25T01:27:24.805Z,11.91
2023-03-25T01:32:26.611Z,11.97
2023-03-25T01:37:29.612Z,11.93
2023-03-25T01:42:31.553Z,11.95
2023-03-25T01:47:33.613Z,11.82
2023-03-25T01:52:35.489Z,11.71
2023-03-25T01:57:41.756Z,11.80
2023-03-25T02:02:43.704Z,11.90
2023-03-25T02:07:48.015Z,12.11
2023-03-25T02:12:49.990Z,12.00
2023-03-25T02:18:16.200Z,12.01
2023-03-25T02:23:29.998Z,12.20
2023-03-25T02:28:48.822Z,12.27
2023-03-25T02:34:08.829Z,12.04
2023-03-25T02:39:29.313Z,12.20
2023-03-25T02:44:41.358Z,12.50
2023-03-25T02:49:50.498Z,12.18
2023-03-25T02:54:57.854Z,12.40
2023-03-25T02:59:59.954Z,12.40
2023-03-25T03:05:21.447Z,12.34
2023-03-25T03:10:26.862Z,12.25
2023-03-25T03:15:38.622Z,12.22
2023-03-25T03:21:10.151Z,12.24
2023-03-25T03:26:28.431Z,12.47
2023-03-25T03:31:48.599Z,12.12
2023-03-25T03:37:02.831Z,12.24
2023-03-25T03:42:32.487Z,12.18
2023-03-25T03:47:40.927Z,12.15
2023-03-25T03:52:47.130Z,12.19
2023-03-25T03:57:52.953Z,12.35
2023-03-25T04:03:28.405Z,12.30
2023-03-25T04:08:34.430Z,12.10
2023-03-25T04:13:39.714Z,12.07
2023-03-25T04:18:43.456Z,12.46
2023-03-25T04:23:46.083Z,12.23
2023-03-25T04:28:47.637Z,12.40
2023-03-25T04:33:50.634Z,12.14
2023-03-25T04:38:53.188Z,12.12
2023-03-25T04:43:54.891Z,11.90
2023-03-25T04:48:57.085Z,11.84
2023-03-25T04:53:59.262Z,11.99
2023-03-25T04:59:00.863Z,11.86
2023-03-25T05:04:07.091Z,11.77
2023-03-25T05:09:11.483Z,11.66
2023-03-25T05:14:15.499Z,12.18
2023-03-25T05:19:18.968Z,12.02
2023-03-25T05:24:20.690Z,11.84
2023-03-25T05:29:22.694Z,11.84
2023-03-25T05:34:25.630Z,11.80
2023-03-25T05:39:27.344Z,11.95
2023-03-25T05:44:28.959Z,11.68
2023-03-25T05:49:30.713Z,11.66
2023-03-25T05:54:32.299Z,11.66
2023-03-25T05:59:34.199Z,11.57
2023-03-25T06:04:41.176Z,11.56
2023-03-25T06:09:48.819Z,11.39
2023-03-25T06:14:54.240Z,11.69
2023-03-25T06:19:56.113Z,11.60
2023-03-25T06:24:57.753Z,11.18
2023-03-25T06:29:59.536Z,11.28
2023-03-25T06:35:01.183Z,11.20
2023-03-25T06:40:03.181Z,11.52
2023-03-25T06:45:06.626Z,11.78
2023-03-25T06:50:18.385Z,11.98
2023-03-25T06:55:20.284Z,12.13
2023-03-25T07:00:24.107Z,12.31
2023-03-25T07:05:26.028Z,12.53
2023-03-25T07:10:27.623Z,12.61
2023-03-25T07:15:29.242Z,12.72
2023-03-25T07:20:30.923Z,12.52
2023-03-25T07:25:32.560Z,12.38
2023-03-25T07:30:34.150Z,13.06
2023-03-25T07:35:36.143Z,12.48
2023-03-25T07:40:37.903Z,12.61
2023-03-25T07:45:43.926Z,12.81
2023-03-25T07:50:46.283Z,12.55
2023-03-25T07:55:50.823Z,12.47
2023-03-25T08:00:52.565Z,12.27
2023-03-25T08:05:54.505Z,12.36
2023-03-25T08:10:56.649Z,12.08
2023-03-25T08:15:58.309Z,11.94
2023-03-25T08:20:59.935Z,12.43
2023-03-25T08:26:02.889Z,12.58
2023-03-25T08:31:08.592Z,12.45
2023-03-25T08:36:14.059Z,12.23
2023-03-25T08:41:16.525Z,12.46
2023-03-25T08:46:18.199Z,12.48
2023-03-25T08:51:19.873Z,12.40
2023-03-25T08:56:21.531Z,11.63
2023-03-25T09:01:24.400Z,12.19
2023-03-25T09:06:26.127Z,11.62
2023-03-25T09:11:36.522Z,12.25
2023-03-25T09:16:38.627Z,11.97
2023-03-25T09:21:40.204Z,11.38
2023-03-25T09:26:41.881Z,11.32
2023-03-25T09:31:43.575Z,11.59
2023-03-25T09:36:48.093Z,11.74
2023-03-25T09:42:29.846Z,11.40
2023-03-25T09:47:34.108Z,11.67
2023-03-25T09:52:50.568Z,11.77
2023-03-25T09:57:57.907Z,11.35
2023-03-25T10:03:17.878Z,11.59
2023-03-25T10:08:39.639Z,11.94
2023-03-25T10:13:48.845Z,12.04
2023-03-25T10:19:03.633Z,12.37
2023-03-25T10:24:37.494Z,12.07
2023-03-25T10:29:43.728Z,12.48
2023-03-25T10:34:50.490Z,12.55
2023-03-25T10:39:52.237Z,12.61
2023-03-25T10:44:54.039Z,13.06
2023-03-25T10:49:56.138Z,13.24
2023-03-25T10:54:58.559Z,12.75
2023-03-25T11:00:18.243Z,12.40
2023-03-25T11:05:22.597Z,12.60
2023-03-25T11:10:24.238Z,12.66
2023-03-25T11:15:30.848Z,12.90
2023-03-25T11:20:39.227Z,13.48
2023-03-25T11:25:42.112Z,13.51
2023-03-25T11:31:06.614Z,13.14
2023-03-25T11:36:23.048Z,12.81
2023-03-25T11:41:28.396Z,12.70
2023-03-25T11:46:30.749Z,12.44
2023-03-25T11:51:33.810Z,12.16
2023-03-25T11:56:40.554Z,12.59
2023-03-25T12:01:45.828Z,12.61
2023-03-25T12:06:59.360Z,12.64
2023-03-25T12:12:23.059Z,12.89
2023-03-25T12:17:37.127Z,12.97
2023-03-25T12:22:57.476Z,13.23
2023-03-25T12:28:29.191Z,13.46
2023-03-25T12:33:38.120Z,13.67
2023-03-25T12:38:58.761Z,13.73
2023-03-25T12:44:29.481Z,13.80
2023-03-25T12:49:49.546Z,13.61
2023-03-25T12:55:09.469Z,13.44
2023-03-25T13:00:23.305Z,13.71
2023-03-25T13:05:31.221Z,13.62
2023-03-25T13:10:35.576Z,13.58
2023-03-25T13:15:58.538Z,13.40
2023-03-25T13:21:20.646Z,13.44
2023-03-25T13:26:29.393Z,13.41
2023-03-25T13:31:36.738Z,13.48
2023-03-25T13:36:42.703Z,13.45
2023-03-25T13:41:48.071Z,13.56
2023-03-25T13:46:56.799Z,13.61
2023-03-25T13:51:58.601Z,13.72
2023-03-25T13:57:37.330Z,13.67
2023-03-25T14:02:44.670Z,13.87
2023-03-25T14:08:23.773Z,13.99
2023-03-25T14:13:32.619Z,13.94
2023-03-25T14:18:44.645Z,14.08
2023-03-25T14:23:46.286Z,13.88
2023-03-25T14:28:48.101Z,13.93
2023-03-25T14:34:04.522Z,14.09
2023-03-25T14:39:32.025Z,14.06
2023-03-25T14:44:56.859Z,13.20
2023-03-25T14:50:20.625Z,12.60
2023-03-25T14:55:34.185Z,12.59
2023-03-25T15:00:41.383Z,12.58
2023-03-25T15:05:43.720Z,12.30
2023-03-25T15:10:48.925Z,11.77
2023-03-25T15:15:52.205Z,11.93
2023-03-25T15:20:53.973Z,11.62
2023-03-25T15:25:56.849Z,11.97
2023-03-25T15:31:16.234Z,11.97
2023-03-25T15:36:31.089Z,11.88
2023-03-25T15:41:54.373Z,12.04
2023-03-25T15:47:03.988Z,11.90
2023-03-25T15:52:42.694Z,12.34
2023-03-25T15:57:49.242Z,12.24
2023-03-25T16:03:03.596Z,12.35
2023-03-25T16:08:14.269Z,12.32
2023-03-25T16:13:23.835Z,12.17
2023-03-25T16:18:26.139Z,12.26
2023-03-25T16:23:30.102Z,12.23
2023-03-25T16:28:34.597Z,12.20
2023-03-25T16:33:39.479Z,12.31
2023-03-25T16:38:41.320Z,12.19
2023-03-25T16:43:43.327Z,12.21
2023-03-25T16:48:51.208Z,12.11
2023-03-25T16:53:55.803Z,12.13
2023-03-25T16:59:07.683Z,11.89
2023-03-25T17:04:13.658Z,11.96
2023-03-25T17:09:18.280Z,11.94
2023-03-25T17:14:22.187Z,11.89
2023-03-25T17:19:26.503Z,11.71
2023-03-25T17:24:28.400Z,11.69
2023-03-25T17:29:29.956Z,11.70
2023-03-25T17:34:32.112Z,11.67
2023-03-25T17:39:34.270Z,11.59
2023-03-25T17:44:41.319Z,11.57
2023-03-25T17:49:43.073Z,11.65
2023-03-25T17:54:44.677Z,11.51
2023-03-25T17:59:47.195Z,11.66
2023-03-25T18:04:48.806Z,11.47
2023-03-25T18:09:50.422Z,11.51
2023-03-25T18:14:52.063Z,11.32
2023-03-25T18:19:53.659Z,11.45
2023-03-25T18:24:55.226Z,11.46
2023-03-25T18:29:57.190Z,11.60
2023-03-25T18:34:58.785Z,11.52
2023-03-25T18:40:00.747Z,11.46
2023-03-25T18:45:02.404Z,11.70
2023-03-25T18:50:17.971Z,11.67
2023-03-25T18:55:19.572Z,11.72
2023-03-25T19:00:25.335Z,11.94
2023-03-25T19:05:27.597Z,11.78
2023-03-25T19:10:31.524Z,11.60
2023-03-25T19:15:33.106Z,11.46
2023-03-25T19:20:36.145Z,11.52
2023-03-25T19:25:37.805Z,11.39
2023-03-25T19:30:39.457Z,11.42
2023-03-25T19:35:41.819Z,11.71
2023-03-25T19:40:44.257Z,11.69
2023-03-25T19:45:46.065Z,11.56
2023-03-25T19:50:47.699Z,11.84
2023-03-25T19:55:49.356Z,11.79
2023-03-25T20:00:51.545Z,11.70
2023-03-25T20:05:57.328Z,11.56
2023-03-25T20:10:59.074Z,11.18
2023-03-25T20:16:00.888Z,11.49
2023-03-25T20:21:02.513Z,11.62
2023-03-25T20:26:04.566Z,11.46
2023-03-25T20:31:20.516Z,11.15
2023-03-25T20:36:22.167Z,11.40
2023-03-25T20:41:24.013Z,11.36
2023-03-25T20:46:28.724Z,11.10
2023-03-25T20:51:30.442Z,10.97
2023-03-25T20:56:33.226Z,11.06
2023-03-25T21:01:35.226Z,11.12
2023-03-25T21:06:37.884Z,11.00
2023-03-25T21:11:40.165Z,11.10
2023-03-25T21:16:42.398Z,11.12
2023-03-25T21:21:44.060Z,11.07
2023-03-25T21:26:45.690Z,11.05
2023-03-25T21:31:47.716Z,11.13
2023-03-25T21:36:49.501Z,10.98
2023-03-25T21:41:51.247Z,11.18
2023-03-25T21:46:54.268Z,10.98
2023-03-25T21:51:56.946Z,11.08
2023-03-25T21:56:58.663Z,11.24
2023-03-25T22:02:00.262Z,11.27
2023-03-25T22:07:01.949Z,11.30
2023-03-25T22:12:03.801Z,11.41
2023-03-25T22:17:05.618Z,11.46
2023-03-25T22:22:11.015Z,11.41
2023-03-25T22:27:12.859Z,11.44
2023-03-25T22:32:14.423Z,11.43
2023-03-25T22:37:16.381Z,11.26
2023-03-25T22:42:17.973Z,11.43
2023-03-25T22:47:19.860Z,11.39
2023-03-25T22:52:21.766Z,11.31
2023-03-25T22:57:23.415Z,11.28
2023-03-25T23:02:25.143Z,11.38
2023-03-25T23:07:26.785Z,11.31
2023-03-25T23:12:28.400Z,11.45
2023-03-25T23:17:30.682Z,11.37
2023-03-25T23:22:32.755Z,11.33
2023-03-25T23:27:34.367Z,11.30
2023-03-25T23:32:36.039Z,11.41
2023-03-25T23:37:37.725Z,11.22
2023-03-25T23:42:39.272Z,10.93
2023-03-25T23:47:41.267Z,10.85
2023-03-25T23:52:42.956Z,11.12
2023-03-25T23:57:44.545Z,10.90
